地図

経路データ

SID SEASON NUMBER BASIN SUBBASIN NAME ISO_TIME NATURE LAT LON WMO_WIND WMO_PRES WMO_AGENCY TRACK_TYPE DIST2LAND LANDFALL IFLAG USA_AGENCY USA_ATCF_ID USA_LAT USA_LON USA_RECORD USA_STATUS USA_WIND USA_PRES USA_SSHS USA_R34_NE USA_R34_SE USA_R34_SW USA_R34_NW USA_R50_NE USA_R50_SE USA_R50_SW USA_R50_NW USA_R64_NE USA_R64_SE USA_R64_SW USA_R64_NW USA_POCI USA_ROCI USA_RMW USA_EYE TOKYO_LAT TOKYO_LON TOKYO_GRADE TOKYO_WIND TOKYO_PRES TOKYO_R50_DIR TOKYO_R50_LONG TOKYO_R50_SHORT TOKYO_R30_DIR TOKYO_R30_LONG TOKYO_R30_SHORT TOKYO_LAND CMA_LAT CMA_LON CMA_CAT CMA_WIND CMA_PRES HKO_LAT HKO_LON HKO_CAT HKO_WIND HKO_PRES NEWDELHI_LAT NEWDELHI_LON NEWDELHI_GRADE NEWDELHI_WIND NEWDELHI_PRES NEWDELHI_CI NEWDELHI_DP NEWDELHI_POCI REUNION_LAT REUNION_LON REUNION_TYPE REUNION_WIND REUNION_PRES REUNION_TNUM REUNION_CI REUNION_RMW REUNION_R34_NE REUNION_R34_SE REUNION_R34_SW REUNION_R34_NW REUNION_R50_NE REUNION_R50_SE REUNION_R50_SW REUNION_R50_NW REUNION_R64_NE REUNION_R64_SE REUNION_R64_SW REUNION_R64_NW BOM_LAT BOM_LON BOM_TYPE BOM_WIND BOM_PRES BOM_TNUM BOM_CI BOM_RMW BOM_R34_NE BOM_R34_SE BOM_R34_SW BOM_R34_NW BOM_R50_NE BOM_R50_SE BOM_R50_SW BOM_R50_NW BOM_R64_NE BOM_R64_SE BOM_R64_SW BOM_R64_NW BOM_ROCI BOM_POCI BOM_EYE BOM_POS_METHOD BOM_PRES_METHOD NADI_LAT NADI_LON NADI_CAT NADI_WIND NADI_PRES WELLINGTON_LAT WELLINGTON_LON WELLINGTON_WIND WELLINGTON_PRES DS824_LAT DS824_LON DS824_STAGE DS824_WIND DS824_PRES TD9636_LAT TD9636_LON TD9636_STAGE TD9636_WIND TD9636_PRES TD9635_LAT TD9635_LON TD9635_WIND TD9635_PRES TD9635_ROCI NEUMANN_LAT NEUMANN_LON NEUMANN_CLASS NEUMANN_WIND NEUMANN_PRES MLC_LAT MLC_LON MLC_CLASS MLC_WIND MLC_PRES USA_GUST BOM_GUST BOM_GUST_PER REUNION_GUST REUNION_GUST_PER USA_SEAHGT USA_SEARAD_NE USA_SEARAD_SE USA_SEARAD_SW USA_SEARAD_NW STORM_SPEED STORM_DIR
1899315S10069 1900 49 SI MM NOT_NAMED 1899-11-11 06:00:00 NR -10.3000 68.6000 reunion main 1602 1602 _____O________ -1 -10.3000 68.6000 99 9.90000 1 268
1899315S10069 1900 49 SI MM NOT_NAMED 1899-11-11 09:00:00 NR -10.3017 68.5599 main 1602 1594 _____P________ -1 -10.3017 68.5599 99 1 263
1899315S10069 1900 49 SI MM NOT_NAMED 1899-11-11 12:00:00 NR -10.3115 68.5130 main 1594 1594 _____P________ -1 -10.3115 68.5130 99 1 251
1899315S10069 1900 49 SI MM NOT_NAMED 1899-11-11 15:00:00 NR -10.3377 68.4523 main 1594 1579 _____P________ -1 -10.3377 68.4523 99 2 241
1899315S10069 1900 49 SI MM NOT_NAMED 1899-11-11 18:00:00 NR -10.3885 68.3709 main 1579 1563 _____P________ -1 -10.3885 68.3709 99 2 234
1899315S10069 1900 49 SI MM NOT_NAMED 1899-11-11 21:00:00 NR -10.4719 68.2620 main 1563 1539 _____P________ -1 -10.4719 68.2620 99 3 230
1899315S10069 1900 49 SI MM NOT_NAMED 1899-11-12 00:00:00 NR -10.5962 68.1186 main 1539 1508 _____P________ -1 -10.5962 68.1186 99 4 228
1899315S10069 1900 49 SI MM NOT_NAMED 1899-11-12 03:00:00 NR -10.7695 67.9336 main 1508 1477 _____P________ -1 -10.7695 67.9336 99 6 226
1899315S10069 1900 49 SI MM NOT_NAMED 1899-11-12 06:00:00 NR -11.0000 67.7000 reunion main 1477 1430 _____O________ -1 -11.0000 67.7000 99 9.90000 7 224
1899315S10069 1900 49 SI MM NOT_NAMED 1899-11-12 09:00:00 NR -11.2928 67.4146 main 1430 1383 _____P________ -1 -11.2928 67.4146 99 9 223
1899315S10069 1900 49 SI MM NOT_NAMED 1899-11-12 12:00:00 NR -11.6416 67.0903 main 1383 1328 _____P________ -1 -11.6416 67.0903 99 10 221
1899315S10069 1900 49 SI MM NOT_NAMED 1899-11-12 15:00:00 NR -12.0372 66.7445 main 1321 1266 _____P________ -1 -12.0372 66.7445 99 11 219
1899315S10069 1900 49 SI MM NOT_NAMED 1899-11-12 18:00:00 NR -12.4704 66.3943 main 1258 1204 _____P________ -1 -12.4704 66.3943 99 11 217
1899315S10069 1900 49 SI MM NOT_NAMED 1899-11-12 21:00:00 NR -12.9323 66.0570 main 1204 1142 _____P________ -1 -12.9323 66.0570 99 11 214
1899315S10069 1900 49 SI MM NOT_NAMED 1899-11-13 00:00:00 NR -13.4137 65.7504 main 1142 1081 _____P________ -1 -13.4137 65.7504 99 11 209
1899315S10069 1900 49 SI MM NOT_NAMED 1899-11-13 03:00:00 NR -13.9059 65.4921 main 1081 1028 _____P________ -1 -13.9059 65.4921 99 11 204
1899315S10069 1900 49 SI MM NOT_NAMED 1899-11-13 06:00:00 NR -14.4000 65.3000 reunion main 1028 992 _____O________ -1 -14.4000 65.3000 99 9.90000 10 197
1899315S10069 1900 49 SI MM NOT_NAMED 1899-11-13 09:00:00 NR -14.8196 65.2068 main 992 965 _____P________ -1 -14.8196 65.2068 99 9 188
1899315S10069 1900 49 SI MM NOT_NAMED 1899-11-13 12:00:00 NR -15.2434 65.1739 main 965 933 _____P________ -1 -15.2434 65.1739 99 9 181
1899315S10069 1900 49 SI MM NOT_NAMED 1899-11-13 15:00:00 NR -15.6772 65.1953 main 933 910 _____P________ -1 -15.6772 65.1953 99 9 174
1899315S10069 1900 49 SI MM NOT_NAMED 1899-11-13 18:00:00 NR -16.1268 65.2646 main 919 897 _____P________ -1 -16.1268 65.2646 99 9 169
1899315S10069 1900 49 SI MM NOT_NAMED 1899-11-13 21:00:00 NR -16.5981 65.3759 main 901 886 _____P________ -1 -16.5981 65.3759 99 10 166
1899315S10069 1900 49 SI MM NOT_NAMED 1899-11-14 00:00:00 NR -17.0968 65.5230 main 886 878 _____P________ -1 -17.0968 65.5230 99 11 163
1899315S10069 1900 49 SI MM NOT_NAMED 1899-11-14 03:00:00 NR -17.6288 65.6997 main 883 878 _____P________ -1 -17.6288 65.6997 99 12 162
1899315S10069 1900 49 SI MM NOT_NAMED 1899-11-14 06:00:00 NR -18.2000 65.9000 reunion main 882 877 _____O________ -1 -18.2000 65.9000 99 9.90000 13 163
1899315S10069 1900 49 SI MM NOT_NAMED 1899-11-14 09:00:00 NR -18.9047 66.1126 main 883 881 _____P________ -1 -18.9047 66.1126 99 15 163
1899315S10069 1900 49 SI MM NOT_NAMED 1899-11-14 12:00:00 NR -19.6597 66.3604 main 900 898 _____P________ -1 -19.6597 66.3604 99 16 162
1899315S10069 1900 49 SI MM NOT_NAMED 1899-11-14 15:00:00 NR -20.4409 66.6333 main 917 917 _____P________ -1 -20.4409 66.6333 99 17 161
1899315S10069 1900 49 SI MM NOT_NAMED 1899-11-14 18:00:00 NR -21.2244 66.9211 main 951 951 _____P________ -1 -21.2244 66.9211 99 16 161
1899315S10069 1900 49 SI MM NOT_NAMED 1899-11-14 21:00:00 NR -21.9859 67.2129 main 992 992 _____P________ -1 -21.9859 67.2129 99 16 160
1899315S10069 1900 49 SI MM NOT_NAMED 1899-11-15 00:00:00 NR -22.7016 67.4978 main 1038 1038 _____P________ -1 -22.7016 67.4978 99 15 160
1899315S10069 1900 49 SI MM NOT_NAMED 1899-11-15 03:00:00 NR -23.3475 67.7641 main 1084 1084 _____P________ -1 -23.3475 67.7641 99 13 159
1899315S10069 1900 49 SI MM NOT_NAMED 1899-11-15 06:00:00 NR -23.9000 68.0000 reunion main 1124 1124 _____O________ -1 -23.9000 68.0000 99 9.90000 11 158
1899315S10069 1900 49 SI MM NOT_NAMED 1899-11-15 09:00:00 NR -24.3419 68.1960 main 1158 1158 _____P________ -1 -24.3419 68.1960 99 8 157
1899315S10069 1900 49 SI MM NOT_NAMED 1899-11-15 12:00:00 NR -24.6819 68.3542 main 1193 1193 _____P________ -1 -24.6819 68.3542 99 6 157
1899315S10069 1900 49 SI MM NOT_NAMED 1899-11-15 15:00:00 NR -24.9345 68.4795 main 1211 1211 _____P________ -1 -24.9345 68.4795 99 5 155
1899315S10069 1900 49 SI MM NOT_NAMED 1899-11-15 18:00:00 NR -25.1145 68.5771 main 1228 1228 _____P________ -1 -25.1145 68.5771 99 3 153
1899315S10069 1900 49 SI MM NOT_NAMED 1899-11-15 21:00:00 NR -25.2366 68.6524 main 1242 1242 _____P________ -1 -25.2366 68.6524 99 2 149
1899315S10069 1900 49 SI MM NOT_NAMED 1899-11-16 00:00:00 NR -25.3152 68.7110 main 1246 1246 _____P________ -1 -25.3152 68.7110 99 2 142
1899315S10069 1900 49 SI MM NOT_NAMED 1899-11-16 03:00:00 NR -25.3648 68.7583 main 1260 1260 _____P________ -1 -25.3648 68.7583 99 1 136
1899315S10069 1900 49 SI MM NOT_NAMED 1899-11-16 06:00:00 NR -25.4000 68.8000 reunion main 1260 _____O________ -1 -25.4000 68.8000 99 9.90000 1 129

IBTrACS Databaseについて

本データベースは、米国NOAAが公開する1842年以降の世界の熱帯低気圧のベストトラックデータアーカイブInternational Best Track Archive for Climate Stewardship (IBTrACS)を、ウェブで閲覧しやすい形式に変換したものです。

最終更新日:2021-11-26